Time;durP1;ratioP1;P1;durP2;ratioP2;P2;SDS_P1;SDS_P2;PMS_P1;PMS_P2;Temp;Humidity;BMP_temperature;BMP_pressure;BME280_temperature;BME280_humidity;BME280_pressure;Samples;Min_cycle;Max_cycle;Signal;HPM_P1;HPM_P2
2023/08/25 00:00:09;;;;;;;6.55;3.92;;;13.20;96.10;;;;;;4945165;28;20054;-81
2023/08/25 00:02:36;;;;;;;9.15;5.07;;;13.20;95.90;;;;;;4950046;28;20058;-81
2023/08/25 00:05:03;;;;;;;6.37;4.27;;;13.20;95.70;;;;;;4973126;28;20107;-81
2023/08/25 00:07:29;;;;;;;6.82;4.28;;;13.20;95.60;;;;;;4952341;28;20031;-79
2023/08/25 00:09:55;;;;;;;6.18;4.35;;;13.20;95.60;;;;;;4974813;28;20488;-80
2023/08/25 00:12:22;;;;;;;8.30;4.85;;;13.10;95.50;;;;;;4981836;28;20027;-81
2023/08/25 00:14:48;;;;;;;9.65;4.93;;;13.20;95.50;;;;;;4978589;28;20484;-81
2023/08/25 00:17:14;;;;;;;6.70;4.75;;;13.20;95.50;;;;;;4977135;28;20034;-81
2023/08/25 00:19:40;;;;;;;9.60;4.85;;;13.10;95.50;;;;;;4977090;28;20077;-80
2023/08/25 00:22:06;;;;;;;8.23;4.35;;;13.10;95.50;;;;;;4976700;28;20094;-81
2023/08/25 00:24:35;;;;;;;9.80;5.25;;;13.10;95.50;;;;;;4974756;28;20054;-80
2023/08/25 00:27:00;;;;;;;8.95;4.93;;;13.00;95.70;;;;;;4976657;28;20481;-80
2023/08/25 00:29:26;;;;;;;9.85;5.47;;;13.00;95.80;;;;;;4966243;28;20062;-81
2023/08/25 00:31:52;;;;;;;8.73;4.53;;;13.00;95.90;;;;;;4959641;28;20023;-81
2023/08/25 00:34:18;;;;;;;11.88;5.32;;;12.90;95.90;;;;;;4973619;28;20455;-82
2023/08/25 00:36:44;;;;;;;9.23;5.22;;;12.90;96.10;;;;;;4976065;28;20012;-80
2023/08/25 00:39:10;;;;;;;7.85;5.35;;;12.80;96.20;;;;;;4974496;28;20396;-80
2023/08/25 00:41:36;;;;;;;10.02;4.97;;;12.80;96.40;;;;;;4951213;28;20030;-81
2023/08/25 00:44:02;;;;;;;7.78;4.85;;;12.80;96.50;;;;;;4973764;28;20026;-80
2023/08/25 00:46:29;;;;;;;9.35;5.22;;;12.70;96.50;;;;;;4976764;28;20022;-82
2023/08/25 00:48:55;;;;;;;11.23;5.40;;;12.70;96.50;;;;;;4976379;28;20166;-81
2023/08/25 00:51:22;;;;;;;7.82;5.07;;;12.80;96.50;;;;;;4976352;28;20043;-80
2023/08/25 00:53:48;;;;;;;12.20;5.43;;;12.80;96.50;;;;;;4974948;28;20019;-80
2023/08/25 00:56:14;;;;;;;9.90;4.78;;;12.80;96.50;;;;;;4975830;28;20162;-80
2023/08/25 00:58:41;;;;;;;7.20;4.88;;;12.80;96.50;;;;;;4976245;28;20023;-80
2023/08/25 01:01:07;;;;;;;9.23;5.47;;;12.80;96.50;;;;;;4975959;28;20480;-81
2023/08/25 01:03:36;;;;;;;13.93;5.50;;;12.70;96.50;;;;;;4976251;28;20019;-80
2023/08/25 01:06:02;;;;;;;10.35;5.30;;;12.70;96.50;;;;;;4976746;28;20121;-80
2023/08/25 01:08:30;;;;;;;12.82;5.53;;;12.70;96.60;;;;;;4958745;28;20022;-81
2023/08/25 01:11:20;;;;;;;8.15;4.70;;;12.70;96.60;;;;;;4958278;28;20035;-81
2023/08/25 01:14:09;;;;;;;7.43;5.47;;;12.70;96.70;;;;;;4967853;28;20033;-82
2023/08/25 01:17:00;;;;;;;6.45;5.20;;;12.70;96.70;;;;;;4974247;28;20029;-81
2023/08/25 01:19:35;;;;;;;11.55;5.10;;;12.70;96.80;;;;;;4968577;28;20041;-81
2023/08/25 01:22:03;;;;;;;11.15;5.78;;;12.60;96.80;;;;;;4975619;28;20031;-81
2023/08/25 01:24:33;;;;;;;10.00;5.75;;;12.60;96.90;;;;;;4972097;28;20019;-81
2023/08/25 01:26:59;;;;;;;8.45;5.05;;;12.60;97.00;;;;;;4966530;28;20027;-80
2023/08/25 01:29:25;;;;;;;6.95;5.32;;;12.60;97.10;;;;;;4975598;28;20057;-81
2023/08/25 01:31:50;;;;;;;7.20;4.40;;;12.50;97.20;;;;;;4975305;28;20019;-81
2023/08/25 01:34:16;;;;;;;5.05;4.32;;;12.50;97.30;;;;;;4971728;28;20069;-80
2023/08/25 01:37:03;;;;;;;8.15;4.90;;;12.50;97.30;;;;;;4975380;28;20023;-80
2023/08/25 01:39:34;;;;;;;7.82;4.80;;;12.50;97.40;;;;;;4958414;28;20034;-79
2023/08/25 01:42:03;;;;;;;10.68;5.40;;;12.40;97.50;;;;;;4963855;28;20440;-81
2023/08/25 01:44:31;;;;;;;8.93;5.25;;;12.40;97.60;;;;;;4982324;28;20022;-80
2023/08/25 01:47:08;;;;;;;6.85;4.32;;;12.30;97.70;;;;;;4984928;28;20031;-80
2023/08/25 01:49:36;;;;;;;7.63;4.63;;;12.40;97.90;;;;;;4975562;28;20034;-81
2023/08/25 01:52:02;;;;;;;9.85;5.30;;;12.40;97.90;;;;;;4977311;28;20122;-80
2023/08/25 01:54:28;;;;;;;9.32;5.15;;;12.40;97.90;;;;;;4975397;28;20019;-80
2023/08/25 01:56:53;;;;;;;7.65;5.10;;;12.40;97.90;;;;;;4969946;28;20041;-81
2023/08/25 01:59:19;;;;;;;12.10;5.53;;;12.40;97.90;;;;;;4957683;28;20037;-80
2023/08/25 02:01:45;;;;;;;7.50;4.97;;;12.40;98.00;;;;;;4975236;28;20113;-80
2023/08/25 02:04:11;;;;;;;7.88;5.57;;;12.30;98.10;;;;;;4975096;28;20114;-81
2023/08/25 02:06:37;;;;;;;7.38;4.75;;;12.30;98.10;;;;;;4974348;28;20019;-80
2023/08/25 02:09:03;;;;;;;8.13;5.65;;;12.30;98.30;;;;;;4975592;28;20034;-81
2023/08/25 02:11:29;;;;;;;8.88;5.53;;;12.30;98.50;;;;;;4974862;28;20038;-81
2023/08/25 02:13:55;;;;;;;7.05;5.25;;;12.20;98.60;;;;;;4974887;28;20023;-81
2023/08/25 02:16:21;;;;;;;9.48;5.15;;;12.30;98.60;;;;;;4977013;28;20428;-81
2023/08/25 02:18:47;;;;;;;8.48;5.05;;;12.20;98.60;;;;;;4974808;28;20026;-81
2023/08/25 02:21:12;;;;;;;7.65;5.18;;;12.20;98.60;;;;;;4961793;28;20078;-81
2023/08/25 02:23:38;;;;;;;9.80;5.90;;;12.20;98.60;;;;;;4978681;28;20037;-81
2023/08/25 02:26:04;;;;;;;9.13;5.60;;;12.30;98.60;;;;;;4987380;28;20003;-80
2023/08/25 02:28:29;;;;;;;6.60;5.25;;;12.30;98.50;;;;;;4973584;28;20015;-80
2023/08/25 02:30:55;;;;;;;10.82;5.50;;;12.30;98.50;;;;;;4956614;28;20144;-80
2023/08/25 02:33:21;;;;;;;17.05;6.40;;;12.30;98.50;;;;;;4956873;28;20019;-79
2023/08/25 02:35:47;;;;;;;10.35;6.43;;;12.30;98.40;;;;;;4933489;29;20040;-80
2023/08/25 02:38:13;;;;;;;9.40;5.57;;;12.30;98.40;;;;;;4933596;29;20032;-80
2023/08/25 02:40:38;;;;;;;6.07;5.25;;;12.30;98.40;;;;;;4924972;29;20115;-81
2023/08/25 02:43:06;;;;;;;13.23;6.05;;;12.30;98.50;;;;;;4930569;29;20070;-81
2023/08/25 02:45:34;;;;;;;10.45;5.22;;;12.30;98.60;;;;;;4931480;29;20547;-81
2023/08/25 02:48:00;;;;;;;7.43;5.47;;;12.30;98.60;;;;;;4933699;29;20039;-81
2023/08/25 02:50:26;;;;;;;6.68;4.93;;;12.30;98.60;;;;;;4933517;29;20039;-81
2023/08/25 02:52:52;;;;;;;6.80;4.75;;;12.30;98.70;;;;;;4930457;29;20143;-81
2023/08/25 02:55:21;;;;;;;7.80;5.55;;;12.30;98.70;;;;;;4931906;29;20091;-79
2023/08/25 02:57:47;;;;;;;6.55;4.82;;;12.30;98.70;;;;;;4930693;29;20027;-79
2023/08/25 03:00:23;;;;;;;10.70;6.40;;;12.40;98.70;;;;;;4933212;29;20038;-80
2023/08/25 03:02:49;;;;;;;10.18;5.53;;;12.40;98.70;;;;;;4932760;29;20154;-80
2023/08/25 03:05:15;;;;;;;6.72;5.00;;;12.50;98.60;;;;;;4933649;29;20051;-80
2023/08/25 03:07:41;;;;;;;7.65;5.53;;;12.50;98.40;;;;;;4953999;28;20097;-81
2023/08/25 03:10:07;;;;;;;9.25;5.63;;;12.60;98.30;;;;;;4964342;28;20429;-81
2023/08/25 03:12:34;;;;;;;9.07;5.57;;;12.70;98.10;;;;;;4985185;28;20484;-81
2023/08/25 03:15:00;;;;;;;10.65;5.15;;;12.70;97.90;;;;;;4968763;28;20035;-80
2023/08/25 03:17:26;;;;;;;8.32;5.88;;;12.80;97.80;;;;;;4983206;28;20085;-81
2023/08/25 03:19:52;;;;;;;9.25;5.70;;;12.80;97.60;;;;;;4984098;28;20019;-81
2023/08/25 03:22:18;;;;;;;13.75;6.05;;;12.90;97.50;;;;;;4989518;28;20026;-82
2023/08/25 03:24:44;;;;;;;8.25;5.43;;;12.90;97.30;;;;;;4957925;28;20034;-81
2023/08/25 03:27:10;;;;;;;7.28;5.63;;;13.00;97.30;;;;;;4970440;28;20015;-81
2023/08/25 03:29:36;;;;;;;7.60;5.63;;;13.00;97.20;;;;;;4973941;28;20503;-80
2023/08/25 03:32:02;;;;;;;8.40;5.93;;;13.10;97.10;;;;;;4956243;28;20029;-80
2023/08/25 03:34:29;;;;;;;9.77;5.97;;;13.20;97.10;;;;;;4973502;28;20026;-81
2023/08/25 03:36:55;;;;;;;11.80;6.68;;;13.20;97.00;;;;;;4973685;28;20392;-81
2023/08/25 03:39:21;;;;;;;13.02;6.22;;;13.30;97.00;;;;;;4954839;28;20023;-82
2023/08/25 03:41:47;;;;;;;16.20;7.55;;;13.40;96.80;;;;;;4941428;28;20088;-81
2023/08/25 03:44:13;;;;;;;10.68;6.70;;;13.50;96.70;;;;;;4973560;28;20018;-84
2023/08/25 03:46:39;;;;;;;12.95;5.93;;;13.60;96.30;;;;;;4969104;28;20026;-81
2023/08/25 03:49:06;;;;;;;9.77;6.53;;;13.70;96.40;;;;;;4973230;28;20412;-82
2023/08/25 03:51:32;;;;;;;13.13;6.47;;;13.80;95.80;;;;;;4973270;28;20041;-80
2023/08/25 03:53:59;;;;;;;8.40;5.78;;;13.90;95.40;;;;;;4973268;28;20045;-81
2023/08/25 03:56:25;;;;;;;8.25;5.97;;;14.00;95.30;;;;;;4974072;28;20069;-82
2023/08/25 03:58:50;;;;;;;5.97;5.25;;;14.10;95.00;;;;;;4955507;28;20026;-81
2023/08/25 04:01:16;;;;;;;9.88;5.63;;;14.20;94.70;;;;;;4977736;28;20023;-82
2023/08/25 04:03:42;;;;;;;10.20;5.72;;;14.30;94.10;;;;;;4982697;28;20030;-81
2023/08/25 04:06:08;;;;;;;10.32;5.85;;;14.40;94.00;;;;;;4956126;28;20508;-81
2023/08/25 04:08:34;;;;;;;9.38;6.38;;;14.40;94.00;;;;;;4974486;28;20428;-80
2023/08/25 04:10:59;;;;;;;8.77;6.35;;;14.50;93.60;;;;;;4979267;28;20082;-79
2023/08/25 04:13:25;;;;;;;10.05;5.88;;;14.60;93.10;;;;;;4969898;28;20050;-79
2023/08/25 04:15:58;;;;;;;6.80;5.53;;;14.70;92.60;;;;;;4960590;28;20114;-81
2023/08/25 04:18:24;;;;;;;9.52;5.90;;;14.80;92.50;;;;;;4977149;28;20075;-81
2023/08/25 04:20:50;;;;;;;10.35;5.22;;;14.80;92.40;;;;;;4957124;28;20437;-80
2023/08/25 04:23:16;;;;;;;10.63;5.93;;;14.90;92.20;;;;;;4956769;28;20116;-81
2023/08/25 04:25:42;;;;;;;17.60;6.13;;;15.00;91.90;;;;;;4956183;28;20034;-81
2023/08/25 04:28:08;;;;;;;9.35;5.45;;;15.10;91.80;;;;;;4973523;28;20105;-80
2023/08/25 04:30:35;;;;;;;9.82;5.72;;;15.20;91.50;;;;;;4973206;28;20042;-82
2023/08/25 04:33:01;;;;;;;23.83;6.55;;;15.30;91.40;;;;;;4972854;28;20093;-80
2023/08/25 04:35:27;;;;;;;12.48;5.22;;;15.40;91.50;;;;;;4955717;28;20022;-81
2023/08/25 04:37:52;;;;;;;10.55;6.00;;;15.70;91.20;;;;;;4973080;28;20062;-79
2023/08/25 04:40:19;;;;;;;9.48;5.75;;;16.20;90.60;;;;;;4971825;28;20019;-82
2023/08/25 04:42:45;;;;;;;8.20;5.00;;;17.00;89.30;;;;;;4953164;28;20030;-79
2023/08/25 04:45:12;;;;;;;7.18;4.72;;;17.90;86.10;;;;;;4974269;28;20777;-82
2023/08/25 04:47:38;;;;;;;8.07;5.03;;;18.70;81.60;;;;;;4968015;28;20034;-82
2023/08/25 04:50:08;;;;;;;8.30;4.82;;;19.20;76.70;;;;;;4955331;28;20035;-79
2023/08/25 04:52:34;;;;;;;8.65;4.93;;;19.70;75.00;;;;;;4955911;28;20051;-80
2023/08/25 04:55:04;;;;;;;11.50;5.20;;;20.40;73.30;;;;;;4985202;28;20038;-80
2023/08/25 04:57:32;;;;;;;5.63;3.97;;;21.20;71.60;;;;;;4961315;28;20030;-82
2023/08/25 04:59:58;;;;;;;8.10;4.82;;;21.90;68.10;;;;;;4968339;28;20019;-80
2023/08/25 05:02:24;;;;;;;6.88;4.45;;;22.20;66.40;;;;;;4976432;28;20019;-81
2023/08/25 05:04:50;;;;;;;6.07;3.60;;;22.60;65.30;;;;;;4959249;28;20049;-82
2023/08/25 05:07:15;;;;;;;3.83;3.15;;;23.20;61.90;;;;;;4970817;28;20030;-81
2023/08/25 05:09:44;;;;;;;5.32;3.63;;;23.30;58.80;;;;;;4975523;28;20420;-83
2023/08/25 05:12:10;;;;;;;5.65;3.47;;;23.40;59.00;;;;;;4968744;28;20357;-80
2023/08/25 05:14:36;;;;;;;9.55;4.15;;;23.80;58.60;;;;;;4975432;28;20034;-81
2023/08/25 05:17:02;;;;;;;7.35;4.78;;;24.40;56.70;;;;;;4958463;28;20046;-82
2023/08/25 05:19:28;;;;;;;12.27;5.97;;;25.00;55.80;;;;;;4975841;28;20034;-82
2023/08/25 05:21:54;;;;;;;13.77;5.05;;;25.60;54.50;;;;;;4975976;28;20031;-81
2023/08/25 05:24:22;;;;;;;7.90;4.10;;;26.00;53.10;;;;;;4958391;28;20466;-82
2023/08/25 05:26:51;;;;;;;9.93;7.35;;;26.30;51.30;;;;;;4963418;28;20384;-82
2023/08/25 05:29:22;;;;;;;7.85;4.40;;;26.60;52.00;;;;;;4958719;28;20206;-81
2023/08/25 05:31:49;;;;;;;9.65;3.58;;;;;;;;;;4975344;28;20175;-83
2023/08/25 05:34:15;;;;;;;15.83;4.50;;;27.40;48.00;;;;;;4955307;28;20027;-82
2023/08/25 05:36:41;;;;;;;6.63;3.97;;;27.70;48.00;;;;;;4968447;28;20300;-81
2023/08/25 05:39:08;;;;;;;5.53;3.37;;;28.10;46.50;;;;;;4958332;28;20042;-82
2023/08/25 05:41:34;;;;;;;8.20;3.30;;;28.10;46.10;;;;;;4958463;28;20474;-82
2023/08/25 05:44:03;;;;;;;4.75;2.55;;;27.80;45.50;;;;;;4961742;28;20050;-81
2023/08/25 05:46:30;;;;;;;17.45;10.15;;;27.80;44.60;;;;;;4957799;28;20054;-82
2023/08/25 05:48:57;;;;;;;22.13;9.38;;;28.40;43.70;;;;;;4975127;28;20014;-81
2023/08/25 05:51:24;;;;;;;7.45;3.10;;;28.40;43.60;;;;;;4965135;28;20035;-80
2023/08/25 05:53:52;;;;;;;4.13;2.50;;;28.40;43.80;;;;;;4972556;28;20055;-81
2023/08/25 05:56:18;;;;;;;5.85;3.03;;;28.30;43.50;;;;;;4974061;28;20027;-83
2023/08/25 05:58:44;;;;;;;4.88;2.58;;;28.20;44.40;;;;;;4975863;28;20376;-83
2023/08/25 06:01:11;;;;;;;7.25;3.58;;;28.50;43.90;;;;;;4975963;28;20033;-85
2023/08/25 06:03:37;;;;;;;;;;;;;;;;;;4978262;28;20034;-82
2023/08/25 06:06:03;;;;;;;4.70;3.30;;;29.70;44.40;;;;;;4965862;28;19910;-84
2023/08/25 06:08:30;;;;;;;8.85;4.18;;;30.50;42.30;;;;;;4957320;28;20681;-82
2023/08/25 06:10:58;;;;;;;8.00;4.13;;;31.30;41.10;;;;;;4946048;28;20075;-81
2023/08/25 06:13:24;;;;;;;6.90;3.03;;;32.00;40.90;;;;;;4958006;28;20019;-82
2023/08/25 06:15:50;;;;;;;15.00;4.83;;;32.70;40.00;;;;;;4967270;28;20476;-83
2023/08/25 06:18:16;;;;;;;6.43;3.33;;;32.90;38.30;;;;;;4949134;28;20030;-85
2023/08/25 06:20:42;;;;;;;4.07;2.65;;;33.10;38.20;;;;;;4958611;28;20485;-87
2023/08/25 06:23:11;;;;;;;11.38;3.72;;;32.70;37.50;;;;;;4982283;28;20031;-88
2023/08/25 06:25:37;;;;;;;5.03;2.83;;;32.50;38.00;;;;;;4962958;28;20045;-88
2023/08/25 06:28:03;;;;;;;6.87;3.90;;;32.40;37.30;;;;;;4980005;28;20069;-89
2023/08/25 06:30:29;;;;;;;6.20;3.03;;;32.30;37.90;;;;;;4968350;28;20034;-89
2023/08/25 06:32:55;;;;;;;4.87;3.50;;;32.20;37.20;;;;;;4977697;28;20053;-88
2023/08/25 06:35:22;;;;;;;3.55;1.48;;;31.70;35.70;;;;;;4977656;28;20030;-89
2023/08/25 06:37:49;;;;;;;2.72;2.28;;;31.40;36.10;;;;;;4978646;28;20078;-90
2023/08/25 06:40:14;;;;;;;;;;;31.50;36.50;;;;;;4970129;28;20081;-87
2023/08/25 06:42:40;;;;;;;4.95;2.83;;;32.00;38.50;;;;;;4957578;28;20107;-90
2023/08/25 06:45:09;;;;;;;2.57;2.10;;;32.60;37.20;;;;;;4958600;28;20030;-89
2023/08/25 06:47:36;;;;;;;4.25;2.60;;;33.30;35.90;;;;;;4960916;28;20027;-88
2023/08/25 06:50:02;;;;;;;6.22;3.10;;;33.50;35.50;;;;;;4960852;28;20030;-88
2023/08/25 06:52:28;;;;;;;;;;;34.20;35.10;;;;;;4978130;28;20090;-89
2023/08/25 06:54:54;;;;;;;15.95;3.85;;;34.50;36.10;;;;;;4958443;28;19918;-88
2023/08/25 06:57:20;;;;;;;8.97;4.70;;;34.30;34.60;;;;;;4975897;28;20027;-89
2023/08/25 06:59:46;;;;;;;4.50;2.43;;;34.80;34.20;;;;;;4976764;28;20027;-90
2023/08/25 07:02:13;;;;;;;4.00;1.87;;;34.70;33.70;;;;;;4975873;28;20320;-91
2023/08/25 07:04:39;;;;;;;7.90;2.00;;;35.20;33.40;;;;;;4979288;28;20062;-90
2023/08/25 07:07:06;;;;;;;6.22;2.25;;;35.80;32.80;;;;;;4978070;28;20365;-92
2023/08/25 07:09:32;;;;;;;3.83;2.05;;;36.20;31.90;;;;;;4960834;28;20035;-89
2023/08/25 07:11:58;;;;;;;4.35;2.00;;;35.70;32.30;;;;;;4976744;28;20034;-89
2023/08/25 07:14:24;;;;;;;7.30;1.98;;;35.40;33.10;;;;;;4976890;28;20157;-89
2023/08/25 07:16:49;;;;;;;2.20;1.75;;;35.40;31.70;;;;;;4959236;28;20058;-89
2023/08/25 07:19:16;;;;;;;2.03;1.27;;;35.00;31.80;;;;;;4954629;28;20043;-87
2023/08/25 07:21:43;;;;;;;2.85;1.75;;;34.70;32.20;;;;;;4973349;28;20511;-88
2023/08/25 07:24:09;;;;;;;3.83;1.67;;;34.60;32.30;;;;;;4961038;28;20038;-89
2023/08/25 07:26:35;;;;;;;3.72;1.30;;;34.60;32.20;;;;;;4977706;28;20019;-85
2023/08/25 07:29:02;;;;;;;2.90;1.37;;;34.90;32.20;;;;;;4978493;28;20090;-86
2023/08/25 07:31:28;;;;;;;14.48;3.50;;;35.40;31.90;;;;;;4978886;28;20027;-85
2023/08/25 07:33:53;;;;;;;3.20;1.93;;;36.00;31.80;;;;;;4975459;28;20023;-88
2023/08/25 07:36:19;;;;;;;3.67;2.80;;;36.70;31.50;;;;;;4975546;28;20273;-86
2023/08/25 07:38:46;;;;;;;2.92;1.83;;;36.70;31.80;;;;;;4957909;28;20027;-91
2023/08/25 07:41:15;;;;;;;3.50;1.83;;;37.00;30.90;;;;;;4975318;28;20034;-87
2023/08/25 07:43:48;;;;;;;5.25;1.85;;;37.00;30.90;;;;;;4956699;28;20027;-84
2023/08/25 07:46:14;;;;;;;5.95;2.28;;;37.20;30.80;;;;;;4956628;28;20027;-90
2023/08/25 07:48:40;;;;;;;9.80;2.42;;;38.10;31.50;;;;;;4993704;28;20019;-91
2023/08/25 07:51:06;;;;;;;9.48;3.33;;;38.20;30.20;;;;;;4976631;28;20035;-88
2023/08/25 07:53:32;;;;;;;22.05;4.70;;;38.70;30.10;;;;;;4977193;28;20037;-88
2023/08/25 07:55:58;;;;;;;6.15;2.65;;;39.00;29.70;;;;;;4979489;28;20531;-86
2023/08/25 07:58:24;;;;;;;;;;;38.70;29.50;;;;;;4954647;29;20039;-88
2023/08/25 08:00:50;;;;;;;;;;;34.80;30.90;;;;;;4967609;28;20406;-90
2023/08/25 08:03:16;;;;;;;5.33;1.90;;;34.50;31.90;;;;;;4961765;28;19912;-88
2023/08/25 08:05:42;;;;;;;12.98;3.63;;;;;;;;;;4992445;28;20042;-86
2023/08/25 08:08:09;;;;;;;5.55;1.80;;;31.90;33.00;;;;;;4959363;28;20094;-86
2023/08/25 08:10:35;;;;;;;;;;;30.20;34.00;;;;;;4967760;28;20210;-85
2023/08/25 08:13:02;;;;;;;5.82;2.08;;;;;;;;;;4958359;28;19910;-88
2023/08/25 08:15:28;;;;;;;6.47;3.55;;;;;;;;;;4957906;28;20023;-85
2023/08/25 08:17:55;;;;;;;4.53;1.87;;;;;;;;;;4974713;28;20729;-88
2023/08/25 08:20:21;;;;;;;6.53;2.05;;;28.70;35.80;;;;;;4956982;28;20048;-86
2023/08/25 08:22:48;;;;;;;3.20;2.28;;;;;;;;;;4952810;29;20027;-86
2023/08/25 08:25:14;;;;;;;3.30;2.10;;;24.40;42.70;;;;;;4973830;28;20045;-87
2023/08/25 08:27:41;;;;;;;5.03;2.83;;;23.20;43.00;;;;;;4969977;28;20484;-84
2023/08/25 08:30:08;;;;;;;4.15;1.90;;;22.60;43.80;;;;;;4973515;28;20093;-87
2023/08/25 08:32:35;;;;;;;6.72;1.67;;;22.20;44.40;;;;;;4981629;28;20094;-83
2023/08/25 08:35:05;;;;;;;5.20;2.35;;;21.80;45.10;;;;;;4976785;28;20030;-85
2023/08/25 08:37:31;;;;;;;2.88;2.10;;;21.60;45.60;;;;;;4962305;28;20461;-84
2023/08/25 08:39:57;;;;;;;5.68;2.55;;;21.60;46.90;;;;;;4978691;28;20019;-85
2023/08/25 08:42:23;;;;;;;5.10;1.83;;;21.60;46.40;;;;;;4962883;28;20046;-87
2023/08/25 08:44:50;;;;;;;4.03;1.60;;;;;;;;;;4976618;28;20038;-88
2023/08/25 08:47:17;;;;;;;4.95;2.13;;;;;;;;;;4957253;28;20507;-87
2023/08/25 08:49:43;;;;;;;;;;;;;;;;;;4974376;28;20181;-88
2023/08/25 08:52:10;;;;;;;5.50;2.30;;;;;;;;;;4961179;28;19969;-88
2023/08/25 08:54:39;;;;;;;;;;;22.50;46.40;;;;;;4979831;28;20023;-87
2023/08/25 08:57:06;;;;;;;13.32;3.65;;;;;;;;;;4978725;28;19906;-85
2023/08/25 08:59:33;;;;;;;4.93;2.57;;;;;;;;;;4979700;28;20082;-86
2023/08/25 09:01:59;;;;;;;6.57;2.40;;;;;;;;;;4983869;28;20249;-86
2023/08/25 09:04:26;;;;;;;9.60;2.85;;;;;;;;;;4978566;28;20023;-86
2023/08/25 09:06:52;;;;;;;10.60;2.73;;;;;;;;;;4970899;28;20029;-88
2023/08/25 09:09:19;;;;;;;5.10;2.88;;;;;;;;;;4982556;28;20060;-93
2023/08/25 09:11:45;;;;;;;;;;;;;;;;;;4950451;28;20023;-89
2023/08/25 09:14:11;;;;;;;6.07;2.38;;;28.30;38.10;;;;;;4970149;28;19917;-85
2023/08/25 09:16:37;;;;;;;4.30;1.92;;;22.70;43.90;;;;;;4969187;28;20016;-86
2023/08/25 09:19:04;;;;;;;2.92;1.60;;;22.20;44.80;;;;;;4976743;28;20110;-85
2023/08/25 09:21:30;;;;;;;2.60;1.73;;;22.00;43.90;;;;;;4974688;28;20456;-86
2023/08/25 09:24:01;;;;;;;5.43;2.38;;;21.80;44.10;;;;;;4956156;28;20034;-85
2023/08/25 09:26:29;;;;;;;4.60;1.70;;;21.80;44.60;;;;;;4956108;28;20029;-87
2023/08/25 09:28:57;;;;;;;3.67;1.63;;;21.90;45.30;;;;;;4971526;28;20087;-89
2023/08/25 09:31:28;;;;;;;5.05;1.60;;;22.30;44.00;;;;;;4954930;28;20090;-86
2023/08/25 09:34:06;;;;;;;4.28;2.28;;;24.20;42.60;;;;;;4980936;28;20070;-86
2023/08/25 09:36:33;;;;;;;3.45;1.92;;;27.00;39.90;;;;;;4981121;28;20026;-86
2023/08/25 09:39:01;;;;;;;5.65;2.13;;;29.40;37.10;;;;;;4963346;28;20122;-87
2023/08/25 09:41:28;;;;;;;8.40;4.55;;;30.60;35.50;;;;;;4994507;28;20035;-86
2023/08/25 09:43:58;;;;;;;5.55;3.13;;;;;;;;;;4967220;28;20194;-85
2023/08/25 09:46:31;;;;;;;10.50;3.08;;;31.60;35.80;;;;;;4984477;28;20101;-90
2023/08/25 09:49:01;;;;;;;13.18;3.53;;;33.10;33.70;;;;;;4987007;28;20023;-91
2023/08/25 09:51:36;;;;;;;4.35;2.55;;;32.00;33.90;;;;;;4960973;28;20027;-90
2023/08/25 09:54:10;;;;;;;5.30;2.53;;;30.00;35.10;;;;;;4962318;28;20107;-89
2023/08/25 09:56:37;;;;;;;3.20;2.60;;;;;;;;;;4943777;28;20576;-87
2023/08/25 09:59:04;;;;;;;13.07;3.45;;;;;;;;;;4970600;28;20046;-87
2023/08/25 10:01:38;;;;;;;6.53;2.50;;;28.10;37.00;;;;;;4976210;28;20027;-90
2023/08/25 10:04:07;;;;;;;6.80;3.88;;;25.40;40.70;;;;;;4958735;28;20499;-85
2023/08/25 10:06:35;;;;;;;7.10;2.50;;;24.60;41.90;;;;;;4976230;28;20026;-84
2023/08/25 10:09:02;;;;;;;6.38;2.80;;;24.00;42.60;;;;;;4968772;28;20130;-85
2023/08/25 10:11:39;;;;;;;;;;;23.70;43.30;;;;;;4977946;28;20492;-87
2023/08/25 10:14:08;;;;;;;4.75;2.67;;;23.50;42.90;;;;;;4958904;28;19906;-87
2023/08/25 10:16:54;;;;;;;5.63;2.90;;;23.30;43.30;;;;;;4980541;28;20027;-92
2023/08/25 10:19:26;;;;;;;5.20;3.15;;;22.90;44.10;;;;;;4985676;28;20079;-89
2023/08/25 10:21:54;;;;;;;5.18;2.88;;;22.80;44.80;;;;;;4981239;28;20038;-89
2023/08/25 10:24:22;;;;;;;4.82;2.55;;;23.80;44.00;;;;;;4975164;28;20023;-91
2023/08/25 10:26:50;;;;;;;6.40;2.92;;;24.80;42.20;;;;;;4979067;28;20155;-92
2023/08/25 10:29:18;;;;;;;5.03;3.45;;;25.00;41.50;;;;;;4962248;28;20022;-91
2023/08/25 10:31:51;;;;;;;5.97;3.33;;;24.80;41.30;;;;;;4963452;28;20058;-91
2023/08/25 10:34:46;;;;;;;8.32;2.80;;;24.40;42.60;;;;;;4979709;28;20015;-88
2023/08/25 10:37:23;;;;;;;7.63;2.88;;;23.90;43.00;;;;;;4962243;28;20358;-88
2023/08/25 10:39:57;;;;;;;4.78;2.75;;;23.50;43.60;;;;;;4971458;28;20110;-88
2023/08/25 10:42:26;;;;;;;13.60;6.03;;;23.30;44.40;;;;;;4975764;28;20030;-89
2023/08/25 10:44:56;;;;;;;8.38;5.40;;;23.00;44.50;;;;;;4958973;28;20095;-89
2023/08/25 10:47:23;;;;;;;5.15;3.35;;;22.50;44.90;;;;;;4976984;28;20041;-89
2023/08/25 10:49:53;;;;;;;4.78;2.90;;;22.20;45.10;;;;;;4976092;28;20042;-86
2023/08/25 10:52:20;;;;;;;4.50;2.10;;;22.10;44.70;;;;;;4978322;28;20508;-87
2023/08/25 10:54:47;;;;;;;7.57;2.90;;;21.80;44.90;;;;;;4976937;28;20066;-88
2023/08/25 10:57:29;;;;;;;3.88;2.58;;;21.50;45.90;;;;;;4958861;28;20078;-82
2023/08/25 10:59:56;;;;;;;4.65;2.50;;;21.30;45.60;;;;;;4976815;28;20019;-88
2023/08/25 11:02:48;;;;;;;6.22;2.83;;;21.30;45.80;;;;;;4980656;28;20026;-92
2023/08/25 11:05:26;;;;;;;7.10;2.95;;;21.30;46.00;;;;;;4979514;28;20031;-88
2023/08/25 11:07:56;;;;;;;5.45;3.00;;;21.40;46.20;;;;;;4959530;28;20031;-88
2023/08/25 11:10:23;;;;;;;5.97;2.75;;;21.50;45.40;;;;;;4978396;28;20026;-89
2023/08/25 11:12:55;;;;;;;4.85;2.95;;;21.60;45.70;;;;;;4979450;28;20065;-89
2023/08/25 11:15:25;;;;;;;3.60;2.67;;;21.70;45.40;;;;;;4987756;28;20024;-91
2023/08/25 11:17:51;;;;;;;6.57;3.25;;;21.90;44.80;;;;;;4985571;28;20030;-87
2023/08/25 11:20:18;;;;;;;5.45;3.33;;;21.80;44.00;;;;;;4960320;28;20027;-87
2023/08/25 11:22:55;;;;;;;5.28;3.00;;;21.70;43.30;;;;;;4951683;28;20399;-86
2023/08/25 11:25:21;;;;;;;4.70;2.85;;;21.70;43.60;;;;;;4976419;28;20052;-83
2023/08/25 11:27:50;;;;;;;4.93;2.67;;;21.70;43.40;;;;;;4970378;28;20035;-88
2023/08/25 11:30:17;;;;;;;13.50;3.25;;;21.60;44.10;;;;;;4975695;28;20044;-88
2023/08/25 11:32:49;;;;;;;6.57;3.33;;;21.60;45.60;;;;;;4978461;28;20019;-88
2023/08/25 11:35:15;;;;;;;4.53;2.63;;;21.60;44.70;;;;;;4992915;28;20066;-88
2023/08/25 11:37:53;;;;;;;3.40;2.88;;;21.50;43.60;;;;;;4973914;28;20106;-92
2023/08/25 11:40:19;;;;;;;3.13;2.72;;;21.40;43.50;;;;;;4972057;28;20102;-92
2023/08/25 11:42:46;;;;;;;3.30;2.55;;;21.30;44.00;;;;;;4956921;28;20030;-90
2023/08/25 11:45:16;;;;;;;3.50;2.33;;;21.30;44.70;;;;;;4979756;28;20512;-93
2023/08/25 11:47:41;;;;;;;3.88;2.85;;;21.30;43.70;;;;;;4968158;28;20569;-90
2023/08/25 11:50:07;;;;;;;6.05;2.97;;;21.20;44.20;;;;;;4963604;28;20035;-93
2023/08/25 11:52:34;;;;;;;8.68;3.20;;;21.10;45.00;;;;;;4969932;28;20129;-94
2023/08/25 11:55:00;;;;;;;5.63;2.70;;;21.10;45.50;;;;;;4964952;28;20065;-94
2023/08/25 11:57:34;;;;;;;;;;;21.20;45.90;;;;;;4965527;28;20477;-90
2023/08/25 12:00:03;;;;;;;13.10;4.10;;;21.20;45.80;;;;;;4970255;28;19910;-91
2023/08/25 12:02:29;;;;;;;8.27;3.03;;;21.40;45.90;;;;;;4953176;28;20114;-87
2023/08/25 12:04:57;;;;;;;3.78;2.78;;;21.50;45.80;;;;;;4958678;28;20038;-89
2023/08/25 12:07:24;;;;;;;6.75;2.40;;;21.60;45.40;;;;;;4983189;28;20042;-88
2023/08/25 12:09:54;;;;;;;6.05;2.50;;;21.70;45.20;;;;;;4971837;28;20042;-87
2023/08/25 12:12:24;;;;;;;6.78;4.30;;;21.60;46.10;;;;;;4967722;28;20063;-90
2023/08/25 12:14:51;;;;;;;2.90;2.60;;;21.70;46.30;;;;;;4970197;28;20023;-86
2023/08/25 12:17:23;;;;;;;4.30;2.90;;;21.60;46.30;;;;;;4983114;28;20019;-87
2023/08/25 12:19:49;;;;;;;5.20;3.50;;;21.70;46.40;;;;;;4981949;28;20034;-85
2023/08/25 12:22:15;;;;;;;7.28;3.92;;;21.60;46.90;;;;;;4973262;28;20031;-84
2023/08/25 12:24:42;;;;;;;8.43;4.53;;;21.60;47.20;;;;;;4963414;28;20043;-85
2023/08/25 12:27:08;;;;;;;8.00;3.07;;;21.50;47.10;;;;;;4979959;28;20272;-84
2023/08/25 12:29:34;;;;;;;5.07;3.42;;;21.30;46.80;;;;;;4978840;28;20037;-84
2023/08/25 12:32:00;;;;;;;4.15;3.08;;;21.30;47.50;;;;;;4967033;28;20035;-85
2023/08/25 12:34:26;;;;;;;6.13;3.25;;;21.20;47.50;;;;;;4969934;28;20057;-87
2023/08/25 12:36:52;;;;;;;6.68;2.88;;;21.20;47.60;;;;;;4976596;28;20019;-87
2023/08/25 12:39:18;;;;;;;4.88;2.97;;;21.00;47.40;;;;;;4978982;28;20045;-87
2023/08/25 12:41:44;;;;;;;10.73;4.22;;;20.80;48.20;;;;;;4979451;28;20022;-90
2023/08/25 12:44:10;;;;;;;14.50;4.25;;;20.70;48.40;;;;;;4978268;28;20041;-86
2023/08/25 12:46:36;;;;;;;18.20;5.15;;;20.80;48.60;;;;;;4978514;28;20113;-86
2023/08/25 12:49:02;;;;;;;12.13;4.75;;;20.80;48.80;;;;;;4978054;28;20019;-85
2023/08/25 12:51:28;;;;;;;14.15;4.55;;;20.90;48.80;;;;;;4978570;28;20045;-86
2023/08/25 12:53:57;;;;;;;7.85;3.10;;;20.90;48.60;;;;;;4989802;28;20067;-84
2023/08/25 12:56:23;;;;;;;5.32;3.50;;;20.90;48.10;;;;;;4971962;28;20029;-87